OPKC

Jinnah International Airport

Karachi, Pakistan
METAR OPKC 181725Z 27007KT 6000 SCT020 27/21 Q1009 NOSIG
Observed Flight Rules
Sep-18 @ 17:25 UTC (33 minutes ago) Marginal Visual Flight Rules
Wind Visibility Clouds
270° at 7 knots 6,003 meters
  • Scattered at 2,000' AGL
Temperatures Readings
Current 27°C / 81°F
Dewpoint 21°C / 70°F
Humidity 70%
Altimeter 29.79" Hg
Pressure 1009 hPa
Elevation 22
METAR OPKC 181725Z 27007KT 6000 SCT020 27/21 Q1009 NOSIG
Observed Flight Rules
Sep-18 @ 17:25 UTC
(33 minutes ago)
MVFR
Wind Visibility
270° at 7 knots 6,003 meters
Clouds
  • Scattered at 2,000' AGL
Temperature Dewpoint
27°C / 81°F 21°C / 70°F
Humidity Altimeter Pressure
70% 29.79" Hg 1009 hPa